createdAt,value
2023-05-25T00:00:28.862Z,5.70
2023-05-25T00:01:28.862Z,5.80
2023-05-25T00:02:28.968Z,5.70
2023-05-25T00:03:28.934Z,6.10
2023-05-25T00:04:28.905Z,5.60
2023-05-25T00:05:28.828Z,5.60
2023-05-25T00:06:28.821Z,5.50
2023-05-25T00:07:28.841Z,6.30
2023-05-25T00:08:28.827Z,5.90
2023-05-25T00:09:28.817Z,5.60
2023-05-25T00:10:28.796Z,5.50
2023-05-25T00:11:28.779Z,5.80
2023-05-25T00:12:28.778Z,5.70
2023-05-25T00:13:28.768Z,5.40
2023-05-25T00:14:28.755Z,5.60
2023-05-25T00:15:28.750Z,5.40
2023-05-25T00:16:28.750Z,5.30
2023-05-25T00:17:28.738Z,5.70
2023-05-25T00:18:28.734Z,5.30
2023-05-25T00:19:28.731Z,5.20
2023-05-25T00:20:28.773Z,5.70
2023-05-25T00:21:28.706Z,5.60
2023-05-25T00:22:28.720Z,5.80
2023-05-25T00:23:28.693Z,5.70
2023-05-25T00:24:28.683Z,5.40
2023-05-25T00:25:28.677Z,5.50
2023-05-25T00:26:28.667Z,5.60
2023-05-25T00:27:28.669Z,5.20
2023-05-25T00:28:28.653Z,5.20
2023-05-25T00:29:28.650Z,5.10
2023-05-25T00:30:28.638Z,5.50
2023-05-25T00:31:28.721Z,5.00
2023-05-25T00:32:28.651Z,5.30
2023-05-25T00:33:28.621Z,5.20
2023-05-25T00:34:28.611Z,5.10
2023-05-25T00:35:28.617Z,5.40
2023-05-25T00:36:28.606Z,5.20
2023-05-25T00:37:28.604Z,5.30
2023-05-25T00:38:28.583Z,5.40
2023-05-25T00:39:28.584Z,5.30
2023-05-25T00:40:28.561Z,5.20
2023-05-25T00:41:28.588Z,5.40
2023-05-25T00:42:28.550Z,5.40
2023-05-25T00:43:28.542Z,5.10
2023-05-25T00:44:28.535Z,5.40
2023-05-25T00:45:28.527Z,5.50
2023-05-25T00:46:28.579Z,5.20
2023-05-25T00:47:28.575Z,5.00
2023-05-25T00:48:28.512Z,5.40
2023-05-25T00:49:28.500Z,5.40
2023-05-25T00:50:28.491Z,5.40
2023-05-25T00:51:28.482Z,5.50
2023-05-25T00:52:28.496Z,5.30
2023-05-25T00:53:28.469Z,5.60
2023-05-25T00:54:28.463Z,5.50
2023-05-25T00:55:28.456Z,5.50
2023-05-25T00:56:28.461Z,5.60
2023-05-25T00:57:28.446Z,5.40
2023-05-25T00:58:28.434Z,5.60
2023-05-25T00:59:28.423Z,5.70
2023-05-25T01:00:28.416Z,5.60
2023-05-25T01:01:28.460Z,5.70
2023-05-25T01:02:28.411Z,6.10
2023-05-25T01:03:28.505Z,5.60
2023-05-25T01:04:28.400Z,5.80
2023-05-25T01:05:28.380Z,5.50
2023-05-25T01:06:28.373Z,5.60
2023-05-25T01:07:28.366Z,5.70
2023-05-25T01:08:28.359Z,5.60
2023-05-25T01:09:28.351Z,5.80
2023-05-25T01:10:28.341Z,6.00
2023-05-25T01:11:28.366Z,5.60
2023-05-25T01:12:28.325Z,5.90
2023-05-25T01:13:28.321Z,5.70
2023-05-25T01:14:28.311Z,6.00
2023-05-25T01:15:28.303Z,6.40
2023-05-25T01:16:28.367Z,6.10
2023-05-25T01:17:28.359Z,6.30
2023-05-25T01:18:28.289Z,6.30
2023-05-25T01:19:28.272Z,5.90
2023-05-25T01:20:28.290Z,6.30
2023-05-25T01:21:28.258Z,5.90
2023-05-25T01:22:28.264Z,6.00
2023-05-25T01:23:28.241Z,6.20
2023-05-25T01:24:28.235Z,6.70
2023-05-25T01:25:28.239Z,6.30
2023-05-25T01:26:28.219Z,6.30
2023-05-25T01:27:28.309Z,6.40
2023-05-25T01:28:28.202Z,6.40
2023-05-25T01:29:28.193Z,6.20
2023-05-25T01:30:28.185Z,6.50
2023-05-25T01:31:28.208Z,6.60
2023-05-25T01:32:28.174Z,6.40
2023-05-25T01:33:28.164Z,6.60
2023-05-25T01:34:28.170Z,6.50
2023-05-25T01:35:28.187Z,6.50
2023-05-25T01:36:28.151Z,6.40
2023-05-25T01:37:28.139Z,6.60
2023-05-25T01:38:28.127Z,6.70
2023-05-25T01:39:28.122Z,6.70
2023-05-25T01:40:28.107Z,6.80
2023-05-25T01:41:28.107Z,6.40
2023-05-25T01:42:28.090Z,6.30
2023-05-25T01:43:28.083Z,6.60
2023-05-25T01:44:28.076Z,7.00
2023-05-25T01:45:28.071Z,7.00
2023-05-25T01:46:28.111Z,6.70
2023-05-25T01:47:28.083Z,6.50
2023-05-25T01:48:28.045Z,6.60
2023-05-25T01:49:28.179Z,6.20
2023-05-25T01:50:28.026Z,6.50
2023-05-25T01:51:28.024Z,6.50
2023-05-25T01:52:28.038Z,7.10
2023-05-25T01:53:28.004Z,6.70
2023-05-25T01:54:27.994Z,6.90
2023-05-25T01:55:27.989Z,7.10
2023-05-25T01:56:27.981Z,6.70
2023-05-25T01:57:27.972Z,7.20
2023-05-25T01:58:27.966Z,6.90
2023-05-25T01:59:27.953Z,7.10
2023-05-25T02:00:27.946Z,6.90
2023-05-25T02:01:28.002Z,7.20
2023-05-25T02:02:27.965Z,6.90
2023-05-25T02:03:27.929Z,6.50
2023-05-25T02:04:27.954Z,7.00
2023-05-25T02:05:27.996Z,7.00
2023-05-25T02:06:27.900Z,7.10
2023-05-25T02:07:27.899Z,6.90
2023-05-25T02:08:27.888Z,7.00
2023-05-25T02:09:27.920Z,7.00
2023-05-25T02:10:27.868Z,6.90
2023-05-25T02:11:27.867Z,6.70
2023-05-25T02:12:27.853Z,6.70
2023-05-25T02:13:27.867Z,7.10
2023-05-25T02:14:27.840Z,7.30
2023-05-25T02:15:27.830Z,6.60
2023-05-25T02:16:27.947Z,7.10
2023-05-25T02:17:27.888Z,7.10
2023-05-25T02:18:27.822Z,6.90
2023-05-25T02:19:27.798Z,7.30
2023-05-25T02:20:27.835Z,7.10
2023-05-25T02:21:27.782Z,7.70
2023-05-25T02:22:27.775Z,7.20
2023-05-25T02:23:27.763Z,7.20
2023-05-25T02:24:27.755Z,7.50
2023-05-25T02:25:27.754Z,7.40
2023-05-25T02:26:27.742Z,7.40
2023-05-25T02:27:27.736Z,7.20
2023-05-25T02:28:27.726Z,7.10
2023-05-25T02:29:27.716Z,7.30
2023-05-25T02:30:27.722Z,7.00
2023-05-25T02:31:27.738Z,8.00
2023-05-25T02:32:27.735Z,7.50
2023-05-25T02:33:27.686Z,7.80
2023-05-25T02:34:27.679Z,7.10
2023-05-25T02:35:27.674Z,7.70
2023-05-25T02:36:27.658Z,7.90
2023-05-25T02:37:27.663Z,7.60
2023-05-25T02:38:27.643Z,7.60
2023-05-25T02:39:27.642Z,7.00
2023-05-25T02:40:27.647Z,8.00
2023-05-25T02:41:27.627Z,7.40
2023-05-25T02:42:27.613Z,8.20
2023-05-25T02:43:27.602Z,7.90
2023-05-25T02:44:27.624Z,8.10
2023-05-25T02:45:27.592Z,8.60
2023-05-25T02:46:27.604Z,8.10
2023-05-25T02:47:27.588Z,8.50
2023-05-25T02:48:27.559Z,8.30
2023-05-25T02:49:27.551Z,8.50
2023-05-25T02:50:27.549Z,8.60
2023-05-25T02:51:27.534Z,8.30
2023-05-25T02:52:27.524Z,8.50
2023-05-25T02:53:27.525Z,8.60
2023-05-25T02:54:27.522Z,8.70
2023-05-25T02:55:27.509Z,8.30
2023-05-25T02:56:27.511Z,8.40
2023-05-25T02:57:27.489Z,8.50
2023-05-25T02:58:27.476Z,8.60
2023-05-25T02:59:27.464Z,9.10
2023-05-25T03:00:27.516Z,8.40
2023-05-25T03:01:27.504Z,8.60
2023-05-25T03:02:27.478Z,8.40
2023-05-25T03:03:27.458Z,9.00
2023-05-25T03:04:27.423Z,8.20
2023-05-25T03:05:27.419Z,8.10
2023-05-25T03:06:27.416Z,8.20
2023-05-25T03:07:27.400Z,7.80
2023-05-25T03:08:27.395Z,8.30
2023-05-25T03:09:27.382Z,8.50
2023-05-25T03:10:27.373Z,8.30
2023-05-25T03:11:27.366Z,7.80
2023-05-25T03:12:27.357Z,8.00
2023-05-25T03:13:27.351Z,8.00
2023-05-25T03:14:27.344Z,8.50
2023-05-25T03:15:27.336Z,8.20
2023-05-25T03:16:27.360Z,8.50
2023-05-25T03:17:27.360Z,8.00
2023-05-25T03:18:27.308Z,8.10
2023-05-25T03:19:27.299Z,7.90
2023-05-25T03:20:27.306Z,8.30
2023-05-25T03:21:27.294Z,8.20
2023-05-25T03:22:27.280Z,8.20
2023-05-25T03:23:27.266Z,7.70
2023-05-25T03:24:27.266Z,8.00
2023-05-25T03:25:27.255Z,8.40
2023-05-25T03:26:27.255Z,8.30
2023-05-25T03:27:27.247Z,8.40
2023-05-25T03:28:27.226Z,8.60
2023-05-25T03:29:27.215Z,8.70
2023-05-25T03:30:27.209Z,8.30
2023-05-25T03:31:27.229Z,9.10
2023-05-25T03:32:27.260Z,9.00
2023-05-25T03:33:27.184Z,9.70
2023-05-25T03:34:27.186Z,8.80
2023-05-25T03:35:27.175Z,9.00
2023-05-25T03:36:27.161Z,9.30
2023-05-25T03:37:27.152Z,8.90
2023-05-25T03:38:27.143Z,9.20
2023-05-25T03:39:27.134Z,9.20
2023-05-25T03:40:27.122Z,9.60
2023-05-25T03:41:27.120Z,9.60
2023-05-25T03:42:27.112Z,9.50
2023-05-25T03:43:27.107Z,8.30
2023-05-25T03:44:27.097Z,8.40
2023-05-25T03:45:27.089Z,8.10
2023-05-25T03:46:27.100Z,8.00
2023-05-25T03:47:27.103Z,7.80
2023-05-25T03:48:27.063Z,6.80
2023-05-25T03:49:27.051Z,7.00
2023-05-25T03:50:27.048Z,6.60
2023-05-25T03:51:27.036Z,6.90
2023-05-25T03:52:27.025Z,7.20
2023-05-25T03:53:27.018Z,6.70
2023-05-25T03:54:27.010Z,7.00
2023-05-25T03:55:27.001Z,6.50
2023-05-25T03:56:26.992Z,6.00
2023-05-25T03:57:27.162Z,6.60
2023-05-25T03:58:26.979Z,6.30
2023-05-25T03:59:26.971Z,6.30
2023-05-25T04:00:26.962Z,6.20
2023-05-25T04:01:26.953Z,6.70
2023-05-25T04:02:27.013Z,6.60
2023-05-25T04:03:27.022Z,6.50
2023-05-25T04:04:26.970Z,6.80
2023-05-25T04:05:26.922Z,7.00
2023-05-25T04:06:26.925Z,7.00
2023-05-25T04:07:26.907Z,6.80
2023-05-25T04:08:26.897Z,6.90
2023-05-25T04:09:26.899Z,6.60
2023-05-25T04:10:26.892Z,7.10
2023-05-25T04:11:26.878Z,7.30
2023-05-25T04:12:26.887Z,7.10
2023-05-25T04:13:26.901Z,6.90
2023-05-25T04:14:26.873Z,7.10
2023-05-25T04:15:26.850Z,7.30
2023-05-25T04:16:26.879Z,7.30
2023-05-25T04:17:26.856Z,7.30
2023-05-25T04:18:26.843Z,7.40
2023-05-25T04:19:26.835Z,7.20
2023-05-25T04:20:26.868Z,7.20
2023-05-25T04:21:26.809Z,6.90
2023-05-25T04:22:26.801Z,7.00
2023-05-25T04:23:26.799Z,7.00
2023-05-25T04:24:26.787Z,6.70
2023-05-25T04:25:29.402Z,7.50
2023-05-25T04:26:26.794Z,7.00
2023-05-25T04:27:26.771Z,7.50
2023-05-25T04:28:26.759Z,7.60
2023-05-25T04:29:26.757Z,7.40
2023-05-25T04:30:26.742Z,7.90
2023-05-25T04:31:26.767Z,8.20
2023-05-25T04:32:26.783Z,7.60
2023-05-25T04:33:26.729Z,8.20
2023-05-25T04:34:26.732Z,7.60
2023-05-25T04:35:26.716Z,8.10
2023-05-25T04:36:26.741Z,8.10
2023-05-25T04:37:26.698Z,8.20
2023-05-25T04:38:26.693Z,8.10
2023-05-25T04:39:26.694Z,9.00
2023-05-25T04:40:26.679Z,9.10
2023-05-25T04:41:26.671Z,10.20
2023-05-25T04:42:26.671Z,10.00
2023-05-25T04:43:26.664Z,9.60
2023-05-25T04:44:26.660Z,10.60
2023-05-25T04:45:26.655Z,10.20
2023-05-25T04:46:26.732Z,9.50
2023-05-25T04:47:26.641Z,9.50
2023-05-25T04:48:26.675Z,9.70
2023-05-25T04:49:26.622Z,9.60
2023-05-25T04:50:26.614Z,10.70
2023-05-25T04:51:26.608Z,10.70
2023-05-25T04:52:26.606Z,11.20
2023-05-25T04:53:26.599Z,11.00
2023-05-25T04:54:26.610Z,11.10
2023-05-25T04:55:26.586Z,11.10
2023-05-25T04:56:26.579Z,11.60
2023-05-25T04:57:26.579Z,11.90
2023-05-25T04:58:26.571Z,11.70
2023-05-25T04:59:26.569Z,11.30
2023-05-25T05:00:26.562Z,11.20
2023-05-25T05:01:26.705Z,11.50
2023-05-25T05:02:26.556Z,11.30
2023-05-25T05:03:26.563Z,11.50
2023-05-25T05:04:26.538Z,11.70
2023-05-25T05:05:26.539Z,11.60
2023-05-25T05:06:26.536Z,12.00
2023-05-25T05:07:26.519Z,13.20
2023-05-25T05:08:26.515Z,13.40
2023-05-25T05:09:26.512Z,13.80
2023-05-25T05:10:26.508Z,13.40
2023-05-25T05:11:26.498Z,13.30
2023-05-25T05:12:26.533Z,14.00
2023-05-25T05:13:26.493Z,13.20
2023-05-25T05:14:26.484Z,13.20
2023-05-25T05:15:26.481Z,13.40
2023-05-25T05:16:26.499Z,14.00
2023-05-25T05:17:26.539Z,14.90
2023-05-25T05:18:26.466Z,15.30
2023-05-25T05:19:26.459Z,14.40
2023-05-25T05:20:26.527Z,15.00
2023-05-25T05:21:26.450Z,14.80
2023-05-25T05:22:26.452Z,16.70
2023-05-25T05:23:26.441Z,15.00
2023-05-25T05:24:26.438Z,14.00
2023-05-25T05:25:26.435Z,13.60
2023-05-25T05:26:26.430Z,13.10
2023-05-25T05:27:26.457Z,13.80
2023-05-25T05:28:26.419Z,12.90
2023-05-25T05:29:26.418Z,12.70
2023-05-25T05:30:26.415Z,12.80
2023-05-25T05:31:26.441Z,12.80
2023-05-25T05:32:26.415Z,12.60
2023-05-25T05:33:26.531Z,12.80
2023-05-25T05:34:26.450Z,12.90
2023-05-25T05:35:26.405Z,13.60
2023-05-25T05:36:26.390Z,12.70
2023-05-25T05:37:26.384Z,13.40
2023-05-25T05:38:26.444Z,13.50
2023-05-25T05:39:26.371Z,13.50
2023-05-25T05:40:26.372Z,13.50
2023-05-25T05:41:26.371Z,12.70
2023-05-25T05:42:26.371Z,13.00
2023-05-25T05:43:26.361Z,13.20
2023-05-25T05:44:28.947Z,13.70
2023-05-25T05:45:26.362Z,13.50
2023-05-25T05:46:26.383Z,13.90
2023-05-25T05:47:26.359Z,13.50
2023-05-25T05:48:26.347Z,15.30
2023-05-25T05:49:26.355Z,14.00
2023-05-25T05:50:26.343Z,14.20
2023-05-25T05:51:26.338Z,14.20
2023-05-25T05:52:26.339Z,13.80
2023-05-25T05:53:26.336Z,14.10
2023-05-25T05:54:26.330Z,14.20
2023-05-25T05:55:26.346Z,14.10
2023-05-25T05:56:26.324Z,14.60
2023-05-25T05:57:26.322Z,14.20
2023-05-25T05:58:26.322Z,14.20
2023-05-25T05:59:26.316Z,14.10
2023-05-25T06:00:26.318Z,15.40
2023-05-25T06:01:26.309Z,14.00
2023-05-25T06:02:26.380Z,11.00
2023-05-25T06:03:26.343Z,15.40
2023-05-25T06:04:26.308Z,14.80
2023-05-25T06:05:26.347Z,13.80
2023-05-25T06:06:26.307Z,14.70
2023-05-25T06:07:26.312Z,14.40
2023-05-25T06:08:26.318Z,14.20
2023-05-25T06:09:26.307Z,14.50
2023-05-25T06:10:26.301Z,14.10
2023-05-25T06:11:26.297Z,14.00
2023-05-25T06:12:26.302Z,14.00
2023-05-25T06:13:26.296Z,13.30
2023-05-25T06:14:28.328Z,13.30
2023-05-25T06:15:26.297Z,13.40
2023-05-25T06:16:26.342Z,13.50
2023-05-25T06:17:26.321Z,13.80
2023-05-25T06:18:26.305Z,13.30
2023-05-25T06:19:26.296Z,13.10
2023-05-25T06:20:26.333Z,13.20
2023-05-25T06:21:26.308Z,14.40
2023-05-25T06:22:26.341Z,13.30
2023-05-25T06:23:26.300Z,12.60
2023-05-25T06:24:26.317Z,12.40
2023-05-25T06:25:26.294Z,12.40
2023-05-25T06:26:26.301Z,12.00
2023-05-25T06:27:26.302Z,12.40
2023-05-25T06:28:26.299Z,12.30
2023-05-25T06:29:26.305Z,11.70
2023-05-25T06:30:26.304Z,11.80
2023-05-25T06:31:26.345Z,10.80
2023-05-25T06:32:26.347Z,10.60
2023-05-25T06:33:26.312Z,9.70
2023-05-25T06:34:26.309Z,9.90
2023-05-25T06:35:26.310Z,9.30
2023-05-25T06:36:27.429Z,9.30
2023-05-25T06:37:26.308Z,8.90
2023-05-25T06:38:26.305Z,8.30
2023-05-25T06:39:26.308Z,8.20
2023-05-25T06:40:26.315Z,8.30
2023-05-25T06:41:26.317Z,7.80
2023-05-25T06:42:26.314Z,8.00
2023-05-25T06:43:26.321Z,7.20
2023-05-25T06:44:26.317Z,7.50
2023-05-25T06:45:26.322Z,7.30
2023-05-25T06:46:26.361Z,7.30
2023-05-25T06:47:26.325Z,7.10
2023-05-25T06:48:26.326Z,6.80
2023-05-25T06:49:26.329Z,7.20
2023-05-25T06:50:26.336Z,6.50
2023-05-25T06:51:26.326Z,7.00
2023-05-25T06:52:26.334Z,6.20
2023-05-25T06:53:26.339Z,6.70
2023-05-25T06:54:26.333Z,6.30
2023-05-25T06:55:26.346Z,6.40
2023-05-25T06:56:26.350Z,6.30
2023-05-25T06:57:26.340Z,6.20
2023-05-25T06:58:26.342Z,6.40
2023-05-25T06:59:26.347Z,6.20
2023-05-25T07:00:26.393Z,6.10
2023-05-25T07:01:26.401Z,6.10
2023-05-25T07:02:26.422Z,6.10
2023-05-25T07:03:26.353Z,5.90
2023-05-25T07:04:26.357Z,5.80
2023-05-25T07:05:26.401Z,5.70
2023-05-25T07:06:26.398Z,5.80
2023-05-25T07:07:26.361Z,5.80
2023-05-25T07:08:26.370Z,5.90
2023-05-25T07:09:26.378Z,5.70
2023-05-25T07:10:26.417Z,5.80
2023-05-25T07:11:26.377Z,6.00
2023-05-25T07:12:26.396Z,6.00
2023-05-25T07:13:26.393Z,6.00
2023-05-25T07:14:26.393Z,5.30
2023-05-25T07:15:26.394Z,5.10
2023-05-25T07:16:26.452Z,5.10
2023-05-25T07:17:26.477Z,5.40
2023-05-25T07:18:26.405Z,5.20
2023-05-25T07:19:26.404Z,5.70
2023-05-25T07:20:26.521Z,5.30
2023-05-25T07:21:26.413Z,5.50
2023-05-25T07:22:26.412Z,5.30
2023-05-25T07:23:26.442Z,5.70
2023-05-25T07:24:26.416Z,5.30
2023-05-25T07:25:26.432Z,5.50
2023-05-25T07:26:26.427Z,5.50
2023-05-25T07:27:26.428Z,5.60
2023-05-25T07:28:26.442Z,5.90
2023-05-25T07:29:26.434Z,5.40
2023-05-25T07:30:26.438Z,6.10
2023-05-25T07:31:26.496Z,5.80
2023-05-25T07:32:26.461Z,6.00
2023-05-25T07:33:26.454Z,6.00
2023-05-25T07:34:27.814Z,6.40
2023-05-25T07:35:26.465Z,6.60
2023-05-25T07:36:26.464Z,6.20
2023-05-25T07:37:26.468Z,6.10
2023-05-25T07:38:26.503Z,6.20
2023-05-25T07:39:26.474Z,6.20
2023-05-25T07:40:26.465Z,6.10
2023-05-25T07:41:26.474Z,6.30
2023-05-25T07:42:26.484Z,6.40
2023-05-25T07:43:26.484Z,6.30
2023-05-25T07:44:26.491Z,6.40
2023-05-25T07:45:26.489Z,6.80
2023-05-25T07:46:26.564Z,6.50
2023-05-25T07:47:26.519Z,6.00
2023-05-25T07:48:26.496Z,5.80
2023-05-25T07:49:26.497Z,5.70
2023-05-25T07:50:26.498Z,6.50
2023-05-25T07:51:26.518Z,6.50
2023-05-25T07:52:26.502Z,6.10
2023-05-25T07:53:26.515Z,6.40
2023-05-25T07:54:26.520Z,5.80
2023-05-25T07:55:26.517Z,6.10
2023-05-25T07:56:26.517Z,6.10
2023-05-25T07:57:26.555Z,6.00
2023-05-25T07:58:26.542Z,5.80
2023-05-25T07:59:26.522Z,5.90
2023-05-25T08:00:26.533Z,5.80
2023-05-25T08:01:27.120Z,5.90
2023-05-25T08:02:26.643Z,6.10
2023-05-25T08:03:39.793Z,6.40
2023-05-25T08:04:26.594Z,6.30
2023-05-25T08:05:26.542Z,6.10
2023-05-25T08:06:26.548Z,5.90
2023-05-25T08:07:26.552Z,6.20
2023-05-25T08:08:26.559Z,6.20
2023-05-25T08:09:26.558Z,5.90
2023-05-25T08:10:26.555Z,5.90
2023-05-25T08:11:26.560Z,6.00
2023-05-25T08:12:46.169Z,5.90
2023-05-25T08:13:26.584Z,5.30
2023-05-25T08:14:26.572Z,5.40
2023-05-25T08:15:26.587Z,5.80
2023-05-25T08:16:26.597Z,5.40
2023-05-25T08:17:26.611Z,5.50
2023-05-25T08:18:26.580Z,5.80
2023-05-25T08:19:26.580Z,5.50
2023-05-25T08:20:26.633Z,5.50
2023-05-25T08:21:26.583Z,5.60
2023-05-25T08:22:26.590Z,5.70
2023-05-25T08:23:26.624Z,5.60
2023-05-25T08:24:26.595Z,5.60
2023-05-25T08:25:26.654Z,5.50
2023-05-25T08:26:38.323Z,5.40
2023-05-25T08:27:26.598Z,5.30
2023-05-25T08:28:26.600Z,5.40
2023-05-25T08:29:26.602Z,5.30
2023-05-25T08:30:26.607Z,5.50
2023-05-25T08:31:26.673Z,5.60
2023-05-25T08:32:26.614Z,5.10
2023-05-25T08:33:26.608Z,5.00
2023-05-25T08:34:26.606Z,5.40
2023-05-25T08:35:26.609Z,4.40
2023-05-25T08:36:26.608Z,5.80
2023-05-25T08:37:26.617Z,5.80
2023-05-25T08:38:26.614Z,5.90
2023-05-25T08:39:26.611Z,5.20
2023-05-25T08:40:26.612Z,4.40
2023-05-25T08:41:26.630Z,5.00
2023-05-25T08:42:26.614Z,4.30
2023-05-25T08:43:26.634Z,5.00
2023-05-25T08:44:26.614Z,5.40
2023-05-25T08:45:34.310Z,5.10
2023-05-25T08:46:26.613Z,5.20
2023-05-25T08:47:26.626Z,5.20
2023-05-25T08:48:40.150Z,4.30
2023-05-25T08:49:26.619Z,3.70
2023-05-25T08:50:26.618Z,3.20
2023-05-25T08:51:26.611Z,3.00
2023-05-25T08:52:26.629Z,2.90
2023-05-25T08:53:26.638Z,3.00
2023-05-25T08:54:26.616Z,3.00
2023-05-25T08:55:26.619Z,2.80
2023-05-25T08:56:26.621Z,3.00
2023-05-25T08:57:26.612Z,3.20
2023-05-25T08:58:26.604Z,3.30
2023-05-25T08:59:26.613Z,3.20
2023-05-25T09:00:26.610Z,3.10
2023-05-25T09:01:26.655Z,3.40
2023-05-25T09:02:26.642Z,3.50
2023-05-25T09:03:26.773Z,3.70
2023-05-25T09:04:26.611Z,3.50
2023-05-25T09:05:26.614Z,3.50
2023-05-25T09:06:26.603Z,3.50
2023-05-25T09:07:26.606Z,3.40
2023-05-25T09:08:26.604Z,3.50
2023-05-25T09:09:26.604Z,3.00
2023-05-25T09:10:26.604Z,3.10
2023-05-25T09:11:37.269Z,3.00
2023-05-25T09:12:26.600Z,3.80
2023-05-25T09:13:26.666Z,3.80
2023-05-25T09:14:26.603Z,3.80
2023-05-25T09:15:26.599Z,3.70
2023-05-25T09:16:26.641Z,4.10
2023-05-25T09:17:26.614Z,4.00
2023-05-25T09:18:26.618Z,3.90
2023-05-25T09:19:26.594Z,3.70
2023-05-25T09:20:26.632Z,3.50
2023-05-25T09:21:26.596Z,3.70
2023-05-25T09:22:26.602Z,3.50
2023-05-25T09:23:26.592Z,3.60
2023-05-25T09:24:26.592Z,3.40
2023-05-25T09:25:26.589Z,3.00
2023-05-25T09:26:26.596Z,3.10
2023-05-25T09:27:26.589Z,3.10
2023-05-25T09:28:27.699Z,3.30
2023-05-25T09:29:26.588Z,3.30
2023-05-25T09:30:26.586Z,3.90
2023-05-25T09:31:26.622Z,3.70
2023-05-25T09:32:26.839Z,3.20
2023-05-25T09:33:26.596Z,3.10
2023-05-25T09:34:26.582Z,3.10
2023-05-25T09:35:26.581Z,3.10
2023-05-25T09:36:26.620Z,3.50
2023-05-25T09:37:26.661Z,2.80
2023-05-25T09:38:26.983Z,2.90
2023-05-25T09:39:26.589Z,3.00
2023-05-25T09:40:26.586Z,3.00
2023-05-25T09:41:26.577Z,3.30
2023-05-25T09:42:26.568Z,3.10
2023-05-25T09:43:40.760Z,3.30
2023-05-25T09:44:26.561Z,2.90
2023-05-25T09:45:26.556Z,3.50
2023-05-25T09:46:26.650Z,3.60
2023-05-25T09:47:26.572Z,3.30
2023-05-25T09:48:26.556Z,3.80
2023-05-25T09:49:26.550Z,3.50
2023-05-25T09:50:26.558Z,3.40
2023-05-25T09:51:26.542Z,3.80
2023-05-25T09:52:26.548Z,3.40
2023-05-25T09:53:26.538Z,3.40
2023-05-25T09:54:26.535Z,3.90
2023-05-25T09:55:31.699Z,4.00
2023-05-25T09:56:26.530Z,4.30
2023-05-25T09:57:26.532Z,4.60
2023-05-25T09:58:26.521Z,4.60
2023-05-25T09:59:26.523Z,4.20
2023-05-25T10:00:26.523Z,3.90
2023-05-25T10:01:26.565Z,3.30
2023-05-25T10:02:26.540Z,3.50
2023-05-25T10:03:26.523Z,4.20
2023-05-25T10:04:26.555Z,3.80
2023-05-25T10:05:26.509Z,4.10
2023-05-25T10:06:26.509Z,3.60
2023-05-25T10:07:26.500Z,4.10
2023-05-25T10:08:28.895Z,4.20
2023-05-25T10:09:26.504Z,4.60
2023-05-25T10:10:26.499Z,3.90
2023-05-25T10:11:26.525Z,4.30
2023-05-25T10:12:26.494Z,4.50
2023-05-25T10:13:26.491Z,4.50
2023-05-25T10:14:29.145Z,4.80
2023-05-25T10:15:26.484Z,4.60
2023-05-25T10:16:26.558Z,4.00
2023-05-25T10:17:26.598Z,3.90
2023-05-25T10:18:26.578Z,4.00
2023-05-25T10:19:26.470Z,4.30
2023-05-25T10:20:29.328Z,4.10
2023-05-25T10:21:26.470Z,3.30
2023-05-25T10:22:26.544Z,3.20
2023-05-25T10:23:26.472Z,3.70
2023-05-25T10:24:26.489Z,3.40
2023-05-25T10:25:26.462Z,3.20
2023-05-25T10:26:26.461Z,4.00
2023-05-25T10:27:27.765Z,4.10
2023-05-25T10:28:26.455Z,3.30
2023-05-25T10:29:26.457Z,3.20
2023-05-25T10:30:26.446Z,3.10
2023-05-25T10:31:26.517Z,3.20
2023-05-25T10:32:26.553Z,3.00
2023-05-25T10:33:26.459Z,3.30
2023-05-25T10:34:26.454Z,3.50
2023-05-25T10:35:26.434Z,3.60
2023-05-25T10:36:26.442Z,3.40
2023-05-25T10:37:26.476Z,3.30
2023-05-25T10:38:26.430Z,3.30
2023-05-25T10:39:26.428Z,3.10
2023-05-25T10:40:26.418Z,3.00
2023-05-25T10:41:26.419Z,3.10
2023-05-25T10:42:26.422Z,3.10
2023-05-25T10:43:26.420Z,3.20
2023-05-25T10:44:26.423Z,3.40
2023-05-25T10:45:26.409Z,3.20
2023-05-25T10:46:26.433Z,3.20
2023-05-25T10:47:26.474Z,3.00
2023-05-25T10:48:26.407Z,3.20
2023-05-25T10:49:26.400Z,3.30
2023-05-25T10:50:26.399Z,3.00
2023-05-25T10:51:26.394Z,3.20
2023-05-25T10:52:26.393Z,3.50
2023-05-25T10:53:26.405Z,3.20
2023-05-25T10:54:26.389Z,2.70
2023-05-25T10:55:26.384Z,2.90
2023-05-25T10:56:26.385Z,3.00
2023-05-25T10:57:26.435Z,3.00
2023-05-25T10:58:26.379Z,3.20
2023-05-25T10:59:26.377Z,3.10
2023-05-25T11:00:26.404Z,2.90
2023-05-25T11:01:26.443Z,3.10
2023-05-25T11:02:26.386Z,3.30
2023-05-25T11:03:26.376Z,3.20
2023-05-25T11:04:26.439Z,3.30
2023-05-25T11:05:26.400Z,3.00
2023-05-25T11:06:26.359Z,3.50
2023-05-25T11:07:26.353Z,3.50
2023-05-25T11:08:26.362Z,3.80
2023-05-25T11:09:26.405Z,3.80
2023-05-25T11:10:26.355Z,3.60
2023-05-25T11:11:26.351Z,3.40
2023-05-25T11:12:26.350Z,3.50
2023-05-25T11:13:26.349Z,3.60
2023-05-25T11:14:26.349Z,3.20
2023-05-25T11:15:26.343Z,3.60
2023-05-25T11:16:26.370Z,3.70
2023-05-25T11:17:26.357Z,3.40
2023-05-25T11:18:26.341Z,3.80
2023-05-25T11:19:26.338Z,3.70
2023-05-25T11:20:26.350Z,3.50
2023-05-25T11:21:26.330Z,3.50
2023-05-25T11:22:26.334Z,3.40
2023-05-25T11:23:26.342Z,3.30
2023-05-25T11:24:26.342Z,3.80
2023-05-25T11:25:26.331Z,3.40
2023-05-25T11:26:26.339Z,3.70
2023-05-25T11:27:26.332Z,3.80
2023-05-25T11:28:26.317Z,3.90
2023-05-25T11:29:26.314Z,3.80
2023-05-25T11:30:26.314Z,3.80
2023-05-25T11:31:26.398Z,4.00
2023-05-25T11:32:26.435Z,4.20
2023-05-25T11:33:26.308Z,4.20
2023-05-25T11:34:26.305Z,4.00
2023-05-25T11:35:26.304Z,3.60
2023-05-25T11:36:26.297Z,3.90
2023-05-25T11:37:26.301Z,3.60
2023-05-25T11:38:26.296Z,3.70
2023-05-25T11:39:26.304Z,4.30
2023-05-25T11:40:26.305Z,4.00
2023-05-25T11:41:26.342Z,3.70
2023-05-25T11:42:26.330Z,3.70
2023-05-25T11:43:26.300Z,3.80
2023-05-25T11:44:26.290Z,4.10
2023-05-25T11:45:26.284Z,4.10
2023-05-25T11:46:26.321Z,3.90
2023-05-25T11:47:26.315Z,3.80
2023-05-25T11:48:26.277Z,4.20
2023-05-25T11:49:26.279Z,4.40
2023-05-25T11:50:26.275Z,4.40
2023-05-25T11:51:26.275Z,4.30
2023-05-25T11:52:26.282Z,4.20
2023-05-25T11:53:26.270Z,4.50
2023-05-25T11:54:26.290Z,4.90
2023-05-25T11:55:26.265Z,4.90
2023-05-25T11:56:35.060Z,4.60
2023-05-25T11:57:26.266Z,4.60
2023-05-25T11:58:26.263Z,4.40
2023-05-25T11:59:27.728Z,4.70
2023-05-25T12:00:26.264Z,5.00
2023-05-25T12:01:26.259Z,4.60
2023-05-25T12:02:26.295Z,4.50
2023-05-25T12:03:26.313Z,4.80
2023-05-25T12:04:26.293Z,5.00
2023-05-25T12:05:26.262Z,5.70
2023-05-25T12:06:26.245Z,4.90
2023-05-25T12:07:26.382Z,5.00
2023-05-25T12:08:26.243Z,5.10
2023-05-25T12:09:26.240Z,5.60
2023-05-25T12:10:26.245Z,6.10
2023-05-25T12:11:26.233Z,5.30
2023-05-25T12:12:26.231Z,4.90
2023-05-25T12:13:26.228Z,5.80
2023-05-25T12:14:26.224Z,6.00
2023-05-25T12:15:26.229Z,6.20
2023-05-25T12:16:26.239Z,5.80
2023-05-25T12:17:26.245Z,5.80
2023-05-25T12:18:26.214Z,5.30
2023-05-25T12:19:26.207Z,6.00
2023-05-25T12:20:26.241Z,5.70
2023-05-25T12:21:26.216Z,5.50
2023-05-25T12:22:26.217Z,5.30
2023-05-25T12:23:26.202Z,5.00
2023-05-25T12:24:26.203Z,5.30
2023-05-25T12:25:27.366Z,5.50
2023-05-25T12:26:26.197Z,5.50
2023-05-25T12:27:26.193Z,5.80
2023-05-25T12:28:26.196Z,5.90
2023-05-25T12:29:26.225Z,5.90
2023-05-25T12:30:26.193Z,5.60
2023-05-25T12:31:26.231Z,5.20
2023-05-25T12:32:26.224Z,5.10
2023-05-25T12:33:26.182Z,4.70
2023-05-25T12:34:26.177Z,4.50
2023-05-25T12:35:26.177Z,4.70
2023-05-25T12:36:26.171Z,4.60
2023-05-25T12:37:26.171Z,4.60
2023-05-25T12:38:26.195Z,4.60
2023-05-25T12:39:26.172Z,4.60
2023-05-25T12:40:26.161Z,5.10
2023-05-25T12:41:26.172Z,4.80
2023-05-25T12:42:26.167Z,5.00
2023-05-25T12:43:26.182Z,4.60
2023-05-25T12:44:26.160Z,4.30
2023-05-25T12:45:26.154Z,4.80
2023-05-25T12:46:26.183Z,4.90
2023-05-25T12:47:26.172Z,4.70
2023-05-25T12:48:26.141Z,4.90
2023-05-25T12:49:26.149Z,4.60
2023-05-25T12:50:26.134Z,4.30
2023-05-25T12:51:26.136Z,4.40
2023-05-25T12:52:26.132Z,4.60
2023-05-25T12:53:26.153Z,4.40
2023-05-25T12:54:26.132Z,4.30
2023-05-25T12:55:26.169Z,4.40
2023-05-25T12:56:26.115Z,4.10
2023-05-25T12:57:26.127Z,4.20
2023-05-25T12:58:26.124Z,4.00
2023-05-25T12:59:26.131Z,4.00
2023-05-25T13:00:26.108Z,4.00
2023-05-25T13:01:26.161Z,3.80
2023-05-25T13:02:26.109Z,4.00
2023-05-25T13:03:26.122Z,4.10
2023-05-25T13:04:26.098Z,3.60
2023-05-25T13:05:26.246Z,3.90
2023-05-25T13:06:26.096Z,3.90
2023-05-25T13:07:26.126Z,4.20
2023-05-25T13:08:26.091Z,3.90
2023-05-25T13:09:26.090Z,3.90
2023-05-25T13:10:26.168Z,3.70
2023-05-25T13:11:26.075Z,3.60
2023-05-25T13:12:26.092Z,3.90
2023-05-25T13:13:26.073Z,4.00
2023-05-25T13:14:26.091Z,3.90